Time;durP1;ratioP1;P1;durP2;ratioP2;P2;SDS_P1;SDS_P2;PMS_P1;PMS_P2;Temp;Humidity;BMP_temperature;BMP_pressure;BME280_temperature;BME280_humidity;BME280_pressure;Samples;Min_cycle;Max_cycle;Signal;HPM_P1;HPM_P2
2022/03/25 00:00:25;;;;;;;13.23;9.63;;;;;;;;;;5049889;28;20209;-90
2022/03/25 00:02:52;;;;;;;11.97;8.37;;;;;;;;;;5058760;28;20209;-90
2022/03/25 00:05:20;;;;;;;13.40;8.37;;;;;;;;;;5068923;28;20585;-91
2022/03/25 00:07:48;;;;;;;10.63;8.10;;;;;;;;;;5043127;28;20233;-90
2022/03/25 00:10:15;;;;;;;12.97;7.80;;;;;;;;;;5060753;28;20739;-90
2022/03/25 00:12:44;;;;;;;10.40;7.97;;;;;;;;;;5052265;28;20642;-90
2022/03/25 00:15:11;;;;;;;9.60;6.63;;;;;;;;;;5043048;28;20618;-90
2022/03/25 00:17:39;;;;;;;10.90;8.20;;;;;;;;;;5045636;28;20210;-90
2022/03/25 00:20:06;;;;;;;10.10;7.47;;;;;;;;;;5060114;28;20205;-90
2022/03/25 00:22:34;;;;;;;10.47;7.07;;;;;;;;;;5068692;28;20274;-90
2022/03/25 00:25:03;;;;;;;9.50;7.10;;;;;;;;;;5057785;28;20289;-90
2022/03/25 00:27:30;;;;;;;10.47;7.00;;;;;;;;;;5051894;28;20279;-90
2022/03/25 00:29:59;;;;;;;10.67;7.60;;;;;;;;;;5068426;28;20205;-90
2022/03/25 00:32:26;;;;;;;11.00;8.10;;;;;;;;;;5068686;28;20232;-90
2022/03/25 00:34:54;;;;;;;9.30;7.47;;;;;;;;;;5046413;28;20227;-90
2022/03/25 00:37:21;;;;;;;13.23;8.33;;;;;;;;;;5045702;28;20575;-90
2022/03/25 00:39:48;;;;;;;10.60;7.33;;;;;;;;;;5048366;28;20621;-91
2022/03/25 00:42:16;;;;;;;8.90;6.63;;;;;;;;;;5048779;28;20218;-90
2022/03/25 00:44:44;;;;;;;7.33;6.27;;;;;;;;;;5038344;28;20680;-90
2022/03/25 00:47:14;;;;;;;9.73;6.70;;;;;;;;;;5060332;28;20609;-90
2022/03/25 00:49:42;;;;;;;10.87;8.20;;;;;;;;;;5068460;28;20205;-90
2022/03/25 00:52:09;;;;;;;10.57;8.40;;;;;;;;;;5057387;28;20221;-90
2022/03/25 00:54:37;;;;;;;12.93;9.37;;;;;;;;;;5050899;28;20234;-90
2022/03/25 00:57:04;;;;;;;14.60;9.20;;;;;;;;;;5048217;28;20285;-90
2022/03/25 00:59:32;;;;;;;11.47;8.17;;;;;;;;;;5048583;28;20217;-90
2022/03/25 01:02:00;;;;;;;12.10;8.30;;;;;;;;;;5040297;28;20211;-90
2022/03/25 01:04:29;;;;;;;11.60;8.40;;;;;;;;;;5036056;28;20229;-90
2022/03/25 01:06:56;;;;;;;19.07;8.60;;;;;;;;;;5055613;28;20764;-90
2022/03/25 01:09:24;;;;;;;12.03;9.00;;;;;;;;;;5048278;28;20553;-90
2022/03/25 01:11:51;;;;;;;11.27;8.90;;;;;;;;;;5046353;28;20206;-90
2022/03/25 01:14:19;;;;;;;13.20;8.47;;;;;;;;;;5054755;28;20595;-91
2022/03/25 01:16:46;;;;;;;15.50;9.20;;;;;;;;;;5047975;28;20263;-90
2022/03/25 01:19:13;;;;;;;10.50;8.03;;;;;;;;;;5044712;28;20266;-90
2022/03/25 01:21:42;;;;;;;12.07;8.83;;;;;;;;;;5045649;28;20295;-90
2022/03/25 01:24:09;;;;;;;12.13;9.37;;;;;;;;;;5039058;28;20268;-90
2022/03/25 01:26:37;;;;;;;14.40;9.87;;;;;;;;;;5046198;28;20255;-90
2022/03/25 01:29:06;;;;;;;14.60;9.10;;;;;;;;;;5045163;28;20213;-90
2022/03/25 01:31:34;;;;;;;14.77;9.53;;;;;;;;;;5067352;28;20585;-90
2022/03/25 01:34:01;;;;;;;12.47;7.90;;;;;;;;;;5067551;28;20229;-90
2022/03/25 01:36:29;;;;;;;15.77;9.87;;;;;;;;;;5050357;28;20206;-90
2022/03/25 01:38:58;;;;;;;13.90;10.03;;;;;;;;;;5044959;28;20206;-90
2022/03/25 01:41:25;;;;;;;13.60;10.53;;;;;;;;;;5048051;28;20238;-90
2022/03/25 01:43:53;;;;;;;16.10;10.17;;;;;;;;;;5044561;28;20315;-90
2022/03/25 01:46:21;;;;;;;13.73;10.33;;;;;;;;;;5039108;28;20609;-90
2022/03/25 01:48:48;;;;;;;12.23;9.13;;;;;;;;;;5068083;28;20258;-90
2022/03/25 01:51:17;;;;;;;15.33;10.27;;;;;;;;;;5070984;28;20208;-90
2022/03/25 01:53:44;;;;;;;12.57;8.23;;;;;;;;;;5053220;28;20317;-89
2022/03/25 01:56:13;;;;;;;12.20;8.07;;;;;;;;;;5067871;28;20278;-90
2022/03/25 01:58:41;;;;;;;15.70;8.17;;;;;;;;;;5055398;28;20234;-90
2022/03/25 02:01:08;;;;;;;14.33;8.80;;;;;;;;;;5046099;28;20332;-90
2022/03/25 02:03:36;;;;;;;12.67;8.10;;;;;;;;;;5044243;28;20263;-90
2022/03/25 02:06:04;;;;;;;17.37;9.40;;;;;;;;;;5060527;28;20628;-90
2022/03/25 02:08:31;;;;;;;17.47;9.33;;;;;;;;;;5070864;28;20679;-90
2022/03/25 02:10:59;;;;;;;16.70;8.67;;;;;;;;;;5043159;28;20206;-90
2022/03/25 02:13:28;;;;;;;11.40;8.40;;;;;;;;;;5057945;28;20613;-90
2022/03/25 02:15:55;;;;;;;13.77;8.53;;;;;;;;;;5050832;28;20423;-90
2022/03/25 02:18:24;;;;;;;13.50;9.17;;;;;;;;;;5045311;28;20205;-90
2022/03/25 02:20:52;;;;;;;12.80;8.47;;;;;;;;;;5050574;28;20205;-90
2022/03/25 02:23:22;;;;;;;12.03;8.80;;;;;;;;;;5070333;28;20243;-90
2022/03/25 02:25:50;;;;;;;13.70;8.77;;;;;;;;;;5070775;28;20312;-90
2022/03/25 02:28:17;;;;;;;16.53;9.03;;;;;;;;;;5048673;28;20299;-90
2022/03/25 02:30:45;;;;;;;12.50;8.47;;;;;;;;;;5055203;28;20516;-90
2022/03/25 02:33:14;;;;;;;16.63;9.77;;;;;;;;;;5050406;28;20210;-90
2022/03/25 02:35:42;;;;;;;13.73;8.53;;;;;;;;;;5040536;28;20254;-90
2022/03/25 02:38:10;;;;;;;12.97;9.07;;;;;;;;;;5033838;28;20206;-90
2022/03/25 02:40:39;;;;;;;16.07;9.93;;;;;;;;;;5057499;28;20225;-90
2022/03/25 02:43:06;;;;;;;13.20;9.23;;;;;;;;;;5064159;28;20221;-90
2022/03/25 02:45:33;;;;;;;19.40;9.70;;;;;;;;;;5056498;28;20589;-90
2022/03/25 02:48:02;;;;;;;14.77;8.90;;;;;;;;;;5069274;28;20209;-90
2022/03/25 02:50:30;;;;;;;12.43;8.70;;;;;;;;;;5066306;28;20266;-90
2022/03/25 02:52:58;;;;;;;12.47;8.47;;;;;;;;;;5049530;28;20220;-90
2022/03/25 02:55:26;;;;;;;12.40;8.60;;;;;;;;;;5069762;28;20213;-90
2022/03/25 02:57:55;;;;;;;13.33;8.70;;;;;;;;;;5070108;28;20209;-90
2022/03/25 03:00:26;;;;;;;11.13;8.20;;;;;;;;;;5052181;28;20214;-89
2022/03/25 03:02:53;;;;;;;14.13;9.23;;;;;;;;;;5053071;28;20271;-90
2022/03/25 03:05:21;;;;;;;13.70;9.63;;;;;;;;;;5049778;28;20241;-90
2022/03/25 03:07:49;;;;;;;13.03;8.83;;;;;;;;;;5049985;28;20213;-90
2022/03/25 03:10:16;;;;;;;11.90;9.70;;;;;;;;;;5042821;28;20265;-90
2022/03/25 03:12:43;;;;;;;12.27;9.07;;;;;;;;;;5054611;28;20245;-90
2022/03/25 03:15:13;;;;;;;11.10;8.63;;;;;;;;;;5049732;28;20304;-90
2022/03/25 03:17:40;;;;;;;11.73;7.97;;;;;;;;;;5049915;28;20210;-90
2022/03/25 03:20:08;;;;;;;14.23;8.57;;;;;;;;;;5046372;28;20714;-90
2022/03/25 03:22:36;;;;;;;14.20;9.60;;;;;;;;;;5060334;28;20297;-90
2022/03/25 03:25:04;;;;;;;14.50;10.00;;;;;;;;;;5068342;28;20229;-90
2022/03/25 03:27:32;;;;;;;16.50;8.97;;;;;;;;;;5061712;28;20222;-90
2022/03/25 03:29:59;;;;;;;13.53;10.43;;;;;;;;;;5049634;28;20210;-90
2022/03/25 03:32:28;;;;;;;11.83;8.83;;;;;;;;;;5055158;28;20263;-90
2022/03/25 03:34:56;;;;;;;14.97;9.60;;;;;;;;;;5048963;28;20226;-90
2022/03/25 03:37:24;;;;;;;13.73;9.83;;;;;;;;;;5045296;28;20210;-90
2022/03/25 03:39:52;;;;;;;14.03;9.97;;;;;;;;;;5064281;28;20201;-90
2022/03/25 03:42:19;;;;;;;15.87;9.43;;;;;;;;;;5069706;28;20205;-90
2022/03/25 03:44:47;;;;;;;15.10;9.27;;;;;;;;;;5057757;28;20249;-90
2022/03/25 03:47:15;;;;;;;13.90;9.87;;;;;;;;;;5038059;28;20296;-90
2022/03/25 03:49:43;;;;;;;13.30;9.00;;;;;;;;;;5049173;28;20712;-90
2022/03/25 03:52:11;;;;;;;12.50;9.87;;;;;;;;;;5048948;28;20222;-90
2022/03/25 03:54:39;;;;;;;15.30;9.83;;;;;;;;;;5039494;28;20234;-90
2022/03/25 03:57:08;;;;;;;14.17;10.03;;;;;;;;;;5048935;28;20208;-90
2022/03/25 03:59:36;;;;;;;13.67;9.10;;;;;;;;;;5048036;28;20241;-90
2022/03/25 04:02:04;;;;;;;13.07;8.57;;;;;;;;;;5056636;28;20280;-91
2022/03/25 04:04:31;;;;;;;15.17;10.43;;;;;;;;;;5048736;28;20323;-90
2022/03/25 04:07:00;;;;;;;16.00;10.47;;;;;;;;;;5047286;28;20715;-90
2022/03/25 04:09:28;;;;;;;14.47;9.33;;;;;;;;;;5038470;28;20211;-90
2022/03/25 04:11:55;;;;;;;14.83;9.50;;;;;;;;;;5054012;28;20218;-90
2022/03/25 04:14:23;;;;;;;11.63;8.80;;;;;;;;;;5047945;28;20234;-90
2022/03/25 04:16:50;;;;;;;12.37;9.17;;;;;;;;;;5042971;28;20626;-90
2022/03/25 04:19:17;;;;;;;16.43;10.40;;;;;;;;;;5060364;28;20213;-91
2022/03/25 04:21:45;;;;;;;15.20;9.63;;;;;;;;;;5051898;28;20214;-90
2022/03/25 04:24:13;;;;;;;13.40;9.07;;;;;;;;;;5048543;28;20650;-90
2022/03/25 04:26:41;;;;;;;12.90;9.57;;;;;;;;;;5046213;28;20226;-90
2022/03/25 04:29:08;;;;;;;13.30;9.00;;;;;;;;;;5056378;28;20665;-90
2022/03/25 04:31:35;;;;;;;11.30;8.17;;;;;;;;;;5048288;28;20241;-90
2022/03/25 04:34:03;;;;;;;13.67;8.60;;;;;;;;;;5046829;28;20233;-90
2022/03/25 04:36:30;;;;;;;14.60;9.60;;;;;;;;;;5047713;28;20629;-90
2022/03/25 04:38:58;;;;;;;13.80;9.47;;;;;;;;;;5046422;28;20233;-90
2022/03/25 04:41:27;;;;;;;14.70;9.20;;;;;;;;;;5048146;28;20282;-91
2022/03/25 04:43:54;;;;;;;12.07;9.17;;;;;;;;;;5034530;28;20223;-90
2022/03/25 04:46:21;;;;;;;11.43;8.67;;;;;;;;;;5049634;28;20221;-91
2022/03/25 04:48:49;;;;;;;15.30;9.30;;;;;;;;;;5048463;28;20206;-90
2022/03/25 04:51:16;;;;;;;14.33;9.17;;;;;;;;;;5048406;28;20616;-90
2022/03/25 04:53:43;;;;;;;13.13;8.80;;;;;;;;;;5047972;28;20566;-90
2022/03/25 04:56:11;;;;;;;13.30;9.40;;;;;;;;;;5047831;28;20609;-91
2022/03/25 04:58:39;;;;;;;12.10;8.30;;;;;;;;;;5048598;28;20263;-90
2022/03/25 05:01:07;;;;;;;15.53;8.47;;;;;;;;;;5037931;28;20660;-91
2022/03/25 05:03:34;;;;;;;12.80;8.40;;;;;;;;;;5054361;28;20296;-90
2022/03/25 05:06:01;;;;;;;14.87;9.63;;;;;;;;;;5049376;28;20222;-90
2022/03/25 05:08:28;;;;;;;15.07;9.00;;;;;;;;;;5045228;28;20202;-90
2022/03/25 05:10:56;;;;;;;15.83;9.30;;;;;;;;;;5034259;28;20207;-90
2022/03/25 05:13:24;;;;;;;13.90;9.60;;;;;;;;;;5056317;28;20225;-90
2022/03/25 05:15:52;;;;;;;13.27;8.63;;;;;;;;;;5048583;28;20205;-91
2022/03/25 05:18:20;;;;;;;11.73;8.50;;;;;;;;;;5043956;28;20230;-90
2022/03/25 05:20:47;;;;;;;12.40;9.30;;;;;;;;;;5064293;28;20209;-90
2022/03/25 05:23:14;;;;;;;11.33;8.40;;;;;;;;;;5048451;28;20236;-90
2022/03/25 05:25:41;;;;;;;15.43;9.03;;;;;;;;;;5051064;28;20650;-90
2022/03/25 05:28:09;;;;;;;14.17;9.87;;;;;;;;;;5043746;28;20233;-90
2022/03/25 05:30:36;;;;;;;13.50;9.10;;;;;;;;;;5047951;28;20272;-90
2022/03/25 05:33:05;;;;;;;14.83;9.67;;;;;;;;;;5053230;28;20207;-90
2022/03/25 05:35:32;;;;;;;12.27;9.00;;;;;;;;;;5044220;28;20240;-91
2022/03/25 05:37:59;;;;;;;15.47;9.40;;;;;;;;;;5058332;28;20657;-90
2022/03/25 05:40:27;;;;;;;16.10;9.97;;;;;;;;;;5054530;28;20209;-90
2022/03/25 05:42:55;;;;;;;15.70;9.30;;;;;;;;;;5043187;28;20273;-90
2022/03/25 05:45:23;;;;;;;12.87;8.20;;;;;;;;;;5042083;28;20328;-90
2022/03/25 05:47:50;;;;;;;13.13;9.07;;;;;;;;;;5052519;28;20228;-90
2022/03/25 05:50:19;;;;;;;13.53;9.67;;;;;;;;;;5049188;28;20264;-90
2022/03/25 05:52:47;;;;;;;13.80;9.57;;;;;;;;;;5034602;28;20202;-90
2022/03/25 05:55:16;;;;;;;15.83;9.97;;;;;;;;;;5042706;28;20261;-90
2022/03/25 05:57:44;;;;;;;13.93;9.03;;;;;;;;;;5065833;28;20290;-90
2022/03/25 06:00:11;;;;;;;12.03;9.77;;;;;;;;;;5053067;28;20260;-90
2022/03/25 06:02:41;;;;;;;14.13;9.20;;;;;;;;;;5044062;28;20594;-90
2022/03/25 06:05:08;;;;;;;14.53;10.43;;;;;;;;;;5053539;28;20221;-90
2022/03/25 06:07:38;;;;;;;17.47;10.20;;;;;;;;;;5045115;28;20210;-90
2022/03/25 06:10:07;;;;;;;14.27;9.93;;;;;;;;;;5047180;28;20217;-90
2022/03/25 06:12:35;;;;;;;12.83;9.40;;;;;;;;;;5055371;28;20205;-89
2022/03/25 06:15:02;;;;;;;13.03;9.73;;;;;;;;;;5050599;28;20585;-90
2022/03/25 06:17:30;;;;;;;16.07;10.23;;;;;;;;;;5040187;28;20240;-90
2022/03/25 06:19:57;;;;;;;13.67;9.93;;;;;;;;;;5052091;28;20222;-90
2022/03/25 06:22:25;;;;;;;15.03;10.43;;;;;;;;;;5049086;28;20205;-91
2022/03/25 06:24:54;;;;;;;13.70;10.00;;;;;;;;;;5054313;28;20283;-90
2022/03/25 06:27:21;;;;;;;13.53;9.73;;;;;;;;;;5054573;28;20615;-90
2022/03/25 06:29:49;;;;;;;17.40;10.63;;;;;;;;;;5067464;28;20639;-90
2022/03/25 06:32:18;;;;;;;16.27;10.50;;;;;;;;;;5059130;28;20205;-89
2022/03/25 06:34:45;;;;;;;17.17;10.77;;;;;;;;;;5053858;28;20621;-90
2022/03/25 06:37:13;;;;;;;15.40;10.17;;;;;;;;;;5048860;28;20285;-90
2022/03/25 06:39:40;;;;;;;14.47;10.70;;;;;;;;;;5061373;28;20205;-90
2022/03/25 06:42:09;;;;;;;14.03;10.13;;;;;;;;;;5053960;28;20233;-91
2022/03/25 06:44:36;;;;;;;15.80;10.30;;;;;;;;;;5051185;28;20575;-90
2022/03/25 06:47:04;;;;;;;15.60;10.77;;;;;;;;;;5045445;28;20587;-90
2022/03/25 06:49:31;;;;;;;15.43;10.07;;;;;;;;;;5049622;28;20206;-90
2022/03/25 06:51:59;;;;;;;15.33;10.50;;;;;;;;;;5050216;28;20210;-90
2022/03/25 06:54:26;;;;;;;16.87;12.00;;;;;;;;;;5042920;28;20226;-90
2022/03/25 06:56:54;;;;;;;22.03;13.00;;;;;;;;;;5049082;28;20272;-90
2022/03/25 06:59:23;;;;;;;18.90;12.33;;;;;;;;;;5061859;28;20233;-90
2022/03/25 07:01:51;;;;;;;17.87;11.97;;;;;;;;;;5070507;28;20209;-90
2022/03/25 07:04:18;;;;;;;16.00;11.80;;;;;;;;;;5052960;28;20240;-90
2022/03/25 07:06:49;;;;;;;16.20;11.47;;;;;;;;;;5059774;28;20213;-90
2022/03/25 07:09:17;;;;;;;14.40;11.07;;;;;;;;;;5070199;28;20227;-90
2022/03/25 07:11:44;;;;;;;15.43;10.53;;;;;;;;;;5055404;28;20214;-90
2022/03/25 07:14:11;;;;;;;17.03;12.30;;;;;;;;;;5033524;28;20263;-90
2022/03/25 07:16:42;;;;;;;17.87;12.13;;;;;;;;;;5057206;28;20205;-90
2022/03/25 07:19:09;;;;;;;16.30;12.37;;;;;;;;;;5069697;28;20578;-91
2022/03/25 07:21:37;;;;;;;14.97;11.70;;;;;;;;;;5043504;28;20300;-90
2022/03/25 07:24:04;;;;;;;16.60;12.00;;;;;;;;;;5050108;28;20295;-90
2022/03/25 07:26:31;;;;;;;16.90;11.50;;;;;;;;;;5064369;28;20212;-90
2022/03/25 07:28:59;;;;;;;15.37;12.30;;;;;;;;;;5059540;28;20220;-91
2022/03/25 07:31:28;;;;;;;15.80;12.00;;;;;;;;;;5043557;28;20635;-90
2022/03/25 07:33:57;;;;;;;18.30;12.80;;;;;;;;;;5056933;28;20227;-90
2022/03/25 07:36:24;;;;;;;16.90;11.73;;;;;;;;;;5049181;28;20640;-90
2022/03/25 07:38:51;;;;;;;18.47;12.80;;;;;;;;;;5046889;28;20211;-90
2022/03/25 07:41:19;;;;;;;16.87;12.37;;;;;;;;;;5062335;28;20253;-90
2022/03/25 07:43:47;;;;;;;18.43;12.50;;;;;;;;;;5068844;28;20237;-90
2022/03/25 07:46:14;;;;;;;16.57;11.93;;;;;;;;;;5048169;28;20329;-91
2022/03/25 07:48:42;;;;;;;21.53;12.73;;;;;;;;;;5059162;28;20225;-90
2022/03/25 07:51:11;;;;;;;18.33;12.30;;;;;;;;;;5029157;28;20635;-90
2022/03/25 07:53:38;;;;;;;21.87;13.20;;;;;;;;;;5030785;28;20219;-90
2022/03/25 07:56:06;;;;;;;21.13;12.77;;;;;;;;;;5054356;28;20198;-90
2022/03/25 07:58:33;;;;;;;17.43;12.63;;;;;;;;;;5053759;28;20199;-90
2022/03/25 08:01:01;;;;;;;17.37;11.97;;;;;;;;;;5049063;28;20213;-90
2022/03/25 08:03:28;;;;;;;16.43;12.40;;;;;;;;;;5047606;28;20324;-90
2022/03/25 08:05:55;;;;;;;22.67;14.13;;;;;;;;;;5056306;28;20205;-90
2022/03/25 08:08:25;;;;;;;16.90;12.37;;;;;;;;;;5068827;28;20225;-90
2022/03/25 08:10:55;;;;;;;20.00;13.23;;;;;;;;;;5065942;28;20205;-90
2022/03/25 08:13:23;;;;;;;21.10;12.57;;;;;;;;;;5034050;28;20214;-90
2022/03/25 08:15:50;;;;;;;23.60;13.63;;;;;;;;;;5056278;28;20210;-89
2022/03/25 08:18:17;;;;;;;18.77;12.57;;;;;;;;;;5048462;28;20294;-90
2022/03/25 08:20:45;;;;;;;18.43;13.03;;;;;;;;;;5043156;28;20264;-90
2022/03/25 08:23:13;;;;;;;20.63;12.67;;;;;;;;;;5043869;28;20212;-90
2022/03/25 08:28:27;;;;;;;19.30;13.07;;;;;;;;;;5053274;28;20229;-90
2022/03/25 08:30:54;;;;;;;20.40;14.20;;;;;;;;;;5038252;28;20295;-90
2022/03/25 08:33:23;;;;;;;20.67;13.27;;;;;;;;;;5048110;28;20619;-89
2022/03/25 08:35:50;;;;;;;20.90;13.30;;;;;;;;;;5048000;28;20626;-89
2022/03/25 08:38:18;;;;;;;20.80;13.70;;;;;;;;;;5039132;28;20598;-90
2022/03/25 08:40:46;;;;;;;18.80;13.37;;;;;;;;;;5036280;28;20622;-90
2022/03/25 08:43:14;;;;;;;20.13;13.83;;;;;;;;;;5047925;28;20622;-90
2022/03/25 08:45:41;;;;;;;19.10;12.83;;;;;;;;;;5043899;28;20633;-90
2022/03/25 08:48:08;;;;;;;19.00;13.37;;;;;;;;;;5050340;28;20221;-90
2022/03/25 08:50:36;;;;;;;19.27;13.90;;;;;;;;;;5068133;28;20201;-90
2022/03/25 08:53:04;;;;;;;21.30;13.50;;;;;;;;;;5068184;28;20684;-90
2022/03/25 08:55:32;;;;;;;23.03;13.90;;;;;;;;;;5057227;28;20232;-90
2022/03/25 08:58:01;;;;;;;20.23;13.20;;;;;;;;;;5034464;28;20630;-90
2022/03/25 09:00:28;;;;;;;20.43;14.57;;;;;;;;;;5060583;28;20213;-89
2022/03/25 09:02:56;;;;;;;20.37;13.70;;;;;;;;;;5046971;28;20212;-90
2022/03/25 09:05:23;;;;;;;20.70;13.33;;;;;;;;;;5046388;28;20271;-90
2022/03/25 09:07:51;;;;;;;24.93;14.80;;;;;;;;;;5046494;28;20260;-90
2022/03/25 09:10:18;;;;;;;22.03;13.27;;;;;;;;;;5048874;28;20210;-90
2022/03/25 09:12:46;;;;;;;20.03;14.07;;;;;;;;;;5053069;28;20209;-89
2022/03/25 09:15:16;;;;;;;23.13;14.67;;;;;;;;;;5063208;28;20221;-90
2022/03/25 09:17:44;;;;;;;21.40;13.87;;;;;;;;;;5055903;28;20203;-90
2022/03/25 09:20:12;;;;;;;20.77;14.77;;;;;;;;;;5051183;28;20758;-90
2022/03/25 09:22:41;;;;;;;22.30;14.80;;;;;;;;;;5042187;28;20268;-90
2022/03/25 09:25:09;;;;;;;22.77;15.23;;;;;;;;;;5051819;28;20317;-91
2022/03/25 09:27:37;;;;;;;24.43;15.13;;;;;;;;;;5055842;28;20319;-89
2022/03/25 09:30:05;;;;;;;27.07;15.20;;;;;;;;;;5072600;28;20723;-90
2022/03/25 09:32:34;;;;;;;27.90;15.40;;;;;;;;;;5039372;28;20304;-91
2022/03/25 09:35:11;;;;;;;24.87;14.13;;;;;;;;;;5053992;28;20283;-89
2022/03/25 09:37:39;;;;;;;22.87;15.30;;;;;;;;;;5060934;28;20223;-89
2022/03/25 09:40:07;;;;;;;24.83;15.27;;;;;;;;;;5053396;28;20270;-90
2022/03/25 09:42:35;;;;;;;28.53;15.67;;;;;;;;;;5053854;28;20647;-89
2022/03/25 09:45:03;;;;;;;27.37;16.00;;;;;;;;;;5061473;28;20294;-90
2022/03/25 09:47:32;;;;;;;28.67;16.80;;;;;;;;;;5060066;28;20569;-90
2022/03/25 09:50:01;;;;;;;25.73;16.57;;;;;;;;;;5046137;28;20313;-90
2022/03/25 09:52:29;;;;;;;27.20;16.33;;;;;;;;;;5053818;28;20217;-89
2022/03/25 09:54:57;;;;;;;28.03;17.03;;;;;;;;;;5066346;28;20221;-91
2022/03/25 09:57:26;;;;;;;28.67;17.03;;;;;;;;;;5067391;28;20206;-90
2022/03/25 09:59:53;;;;;;;29.47;17.17;;;;;;;;;;5048490;28;20213;-91
2022/03/25 10:02:21;;;;;;;27.67;16.27;;;;;;;;;;5059401;28;20585;-90
2022/03/25 10:04:49;;;;;;;25.53;16.67;;;;;;;;;;5066397;28;20246;-91
2022/03/25 10:07:19;;;;;;;27.20;16.33;;;;;;;;;;5067380;28;20682;-91
2022/03/25 10:09:47;;;;;;;25.37;16.07;;;;;;;;;;5043441;28;20227;-90
2022/03/25 10:12:25;;;;;;;27.63;16.60;;;;;;;;;;5049953;28;20210;-90
2022/03/25 10:14:52;;;;;;;27.57;16.30;;;;;;;;;;5064213;28;20229;-91
2022/03/25 10:17:20;;;;;;;25.80;16.03;;;;;;;;;;5060767;28;20217;-90
2022/03/25 10:19:48;;;;;;;25.03;16.03;;;;;;;;;;5042950;28;20203;-89
2022/03/25 10:22:16;;;;;;;24.83;15.77;;;;;;;;;;5047149;28;20225;-91
2022/03/25 10:24:46;;;;;;;24.30;16.00;;;;;;;;;;5046866;28;20300;-91
2022/03/25 10:27:13;;;;;;;27.20;16.13;;;;;;;;;;5040895;28;20219;-89
2022/03/25 10:29:41;;;;;;;26.53;16.40;;;;;;;;;;5028717;28;20644;-90
2022/03/25 10:32:09;;;;;;;24.80;15.30;;;;;;;;;;5057915;28;20220;-91
2022/03/25 10:34:37;;;;;;;26.17;16.67;;;;;;;;;;5059579;28;20291;-91
2022/03/25 10:37:05;;;;;;;26.27;16.53;;;;;;;;;;5045006;28;20209;-91
2022/03/25 10:39:33;;;;;;;27.83;16.83;;;;;;;;;;5046649;28;20194;-91
2022/03/25 10:42:03;;;;;;;25.47;15.87;;;;;;;;;;5042482;28;20209;-91
2022/03/25 10:44:37;;;;;;;27.27;16.47;;;;;;;;;;5052807;28;20251;-89
2022/03/25 10:47:22;;;;;;;24.60;15.93;;;;;;;;;;5046969;28;20209;-89
2022/03/25 10:49:50;;;;;;;28.80;16.90;;;;;;;;;;5036952;28;20311;-90
2022/03/25 10:52:21;;;;;;;25.60;16.70;;;;;;;;;;5033640;28;20213;-90
2022/03/25 10:54:49;;;;;;;26.83;15.67;;;;;;;;;;5045937;28;20600;-91
2022/03/25 10:57:19;;;;;;;28.60;17.00;;;;;;;;;;5046032;28;20206;-90
2022/03/25 10:59:59;;;;;;;25.23;16.40;;;;;;;;;;5041856;28;20639;-89
2022/03/25 11:02:27;;;;;;;24.30;15.43;;;;;;;;;;5059972;28;20691;-89
2022/03/25 11:04:54;;;;;;;26.07;16.27;;;;;;;;;;5045744;28;20313;-91
2022/03/25 11:07:23;;;;;;;27.53;16.43;;;;;;;;;;5031405;28;20269;-91
2022/03/25 11:09:51;;;;;;;28.00;16.63;;;;;;;;;;5050744;28;20399;-89
2022/03/25 11:12:21;;;;;;;25.30;15.10;;;;;;;;;;5045888;28;20642;-89
2022/03/25 11:14:48;;;;;;;26.33;15.93;;;;;;;;;;5046084;28;20237;-90
2022/03/25 11:17:17;;;;;;;24.77;15.53;;;;;;;;;;5026886;28;20719;-91
2022/03/25 11:19:45;;;;;;;27.17;16.67;;;;;;;;;;5058591;28;20198;-90
2022/03/25 11:22:13;;;;;;;26.23;15.70;;;;;;;;;;5025428;28;20215;-89
2022/03/25 11:24:42;;;;;;;23.17;14.80;;;;;;;;;;5031424;28;20233;-91
2022/03/25 11:27:15;;;;;;;22.47;14.67;;;;;;;;;;5052176;28;20664;-90
2022/03/25 11:29:45;;;;;;;26.60;14.83;;;;;;;;;;5045111;28;20218;-90
2022/03/25 11:32:13;;;;;;;22.93;15.27;;;;;;;;;;5041132;28;20775;-91
2022/03/25 11:34:44;;;;;;;23.93;15.83;;;;;;;;;;5040077;28;20284;-90
2022/03/25 11:37:22;;;;;;;27.73;15.67;;;;;;;;;;5037216;28;20661;-91
2022/03/25 11:39:50;;;;;;;28.77;17.20;;;;;;;;;;5045607;28;20725;-90
2022/03/25 11:42:35;;;;;;;22.00;15.10;;;;;;;;;;5043510;28;20261;-89
2022/03/25 11:45:21;;;;;;;26.17;14.70;;;;;;;;;;5035613;28;20634;-90
2022/03/25 11:48:11;;;;;;;29.03;16.33;;;;;;;;;;5043025;28;20407;-90
2022/03/25 11:50:41;;;;;;;27.10;15.10;;;;;;;;;;5026851;28;20233;-90
2022/03/25 11:53:23;;;;;;;22.37;14.27;;;;;;;;;;5047626;28;20563;-91
2022/03/25 11:55:54;;;;;;;22.00;13.90;;;;;;;;;;5064676;28;20285;-90
2022/03/25 11:58:21;;;;;;;20.57;14.20;;;;;;;;;;5044232;28;20221;-89
2022/03/25 12:00:51;;;;;;;24.03;13.37;;;;;;;;;;5058050;28;20221;-90
2022/03/25 12:03:18;;;;;;;23.10;14.27;;;;;;;;;;5044838;28;20213;-89
2022/03/25 12:05:59;;;;;;;21.43;13.80;;;;;;;;;;5034888;28;20285;-89
2022/03/25 12:08:28;;;;;;;21.03;14.13;;;;;;;;;;5058146;28;20221;-90
2022/03/25 12:10:56;;;;;;;23.63;15.00;;;;;;;;;;5046536;28;20207;-90
2022/03/25 12:13:24;;;;;;;24.60;15.07;;;;;;;;;;5044209;28;20216;-90
2022/03/25 12:15:52;;;;;;;21.73;14.40;;;;;;;;;;5039946;28;20221;-89
2022/03/25 12:18:38;;;;;;;23.33;15.30;;;;;;;;;;5052061;28;20276;-91
2022/03/25 12:21:11;;;;;;;23.63;15.43;;;;;;;;;;5045208;28;20777;-90
2022/03/25 12:23:39;;;;;;;24.13;16.43;;;;;;;;;;5036272;28;20733;-90
2022/03/25 12:26:06;;;;;;;18.83;13.03;;;;;;;;;;5052117;28;20251;-88
2022/03/25 12:28:34;;;;;;;26.97;13.13;;;;;;;;;;5059737;28;20219;-89
2022/03/25 12:31:04;;;;;;;22.77;14.17;;;;;;;;;;5064681;28;20633;-91
2022/03/25 12:33:31;;;;;;;24.23;15.20;;;;;;;;;;5038045;28;20222;-91
2022/03/25 12:36:00;;;;;;;25.77;15.07;;;;;;;;;;5067381;28;20201;-89
2022/03/25 12:38:28;;;;;;;24.73;15.77;;;;;;;;;;5045042;28;20216;-89
2022/03/25 12:40:56;;;;;;;22.07;14.80;;;;;;;;;;5042877;28;20284;-88
2022/03/25 12:43:29;;;;;;;23.10;16.20;;;;;;;;;;5036741;28;20275;-90
2022/03/25 12:45:57;;;;;;;24.37;16.40;;;;;;;;;;5052382;28;20263;-90
2022/03/25 12:48:25;;;;;;;28.30;17.00;;;;;;;;;;5038577;28;20222;-91
2022/03/25 12:50:53;;;;;;;24.03;15.60;;;;;;;;;;5042591;28;20252;-91
2022/03/25 12:53:23;;;;;;;25.37;15.23;;;;;;;;;;5042850;28;20210;-91
2022/03/25 12:55:52;;;;;;;25.40;16.47;;;;;;;;;;5040406;28;20216;-89
2022/03/25 12:58:21;;;;;;;23.23;14.57;;;;;;;;;;5051660;28;20293;-91
2022/03/25 13:00:49;;;;;;;24.07;16.03;;;;;;;;;;5054270;28;20243;-92
2022/03/25 13:03:17;;;;;;;23.30;16.30;;;;;;;;;;5074483;28;20247;-91
2022/03/25 13:05:45;;;;;;;25.20;15.10;;;;;;;;;;5067389;28;20234;-89
2022/03/25 13:08:12;;;;;;;22.80;14.03;;;;;;;;;;5042034;28;20209;-90
2022/03/25 13:10:41;;;;;;;22.47;16.03;;;;;;;;;;5063814;28;20263;-89
2022/03/25 13:13:10;;;;;;;22.43;15.17;;;;;;;;;;5055821;28;20205;-88
2022/03/25 13:15:39;;;;;;;22.97;15.37;;;;;;;;;;5047186;28;20228;-88
2022/03/25 13:18:08;;;;;;;26.87;14.93;;;;;;;;;;5046335;28;20212;-91
2022/03/25 13:20:36;;;;;;;25.97;15.10;;;;;;;;;;5050479;28;20701;-91
2022/03/25 13:23:05;;;;;;;25.70;15.47;;;;;;;;;;5041573;28;20202;-91
2022/03/25 13:25:33;;;;;;;21.93;15.03;;;;;;;;;;5043118;28;20268;-90
2022/03/25 13:28:02;;;;;;;24.07;14.33;;;;;;;;;;5060385;28;20789;-92
2022/03/25 13:30:31;;;;;;;24.23;14.83;;;;;;;;;;5069484;28;20229;-90
2022/03/25 13:33:08;;;;;;;21.10;14.80;;;;;;;;;;5061509;28;20577;-91
2022/03/25 13:35:37;;;;;;;25.23;14.23;;;;;;;;;;5043765;28;20237;-91
2022/03/25 13:38:06;;;;;;;21.37;13.80;;;;;;;;;;5064824;28;20221;-90
2022/03/25 13:40:38;;;;;;;20.07;13.73;;;;;;;;;;5049144;28;20210;-90
2022/03/25 13:43:08;;;;;;;25.80;15.60;;;;;;;;;;5032742;28;20264;-89
2022/03/25 13:45:37;;;;;;;23.17;13.67;;;;;;;;;;5057688;28;20303;-90
2022/03/25 13:48:05;;;;;;;22.07;14.93;;;;;;;;;;5052238;28;20621;-93
2022/03/25 13:50:33;;;;;;;23.23;14.63;;;;;;;;;;5052297;28;20221;-90
2022/03/25 13:53:09;;;;;;;21.97;13.93;;;;;;;;;;5046422;28;20234;-91
2022/03/25 13:55:37;;;;;;;21.57;13.33;;;;;;;;;;5062851;28;20229;-91
2022/03/25 13:58:05;;;;;;;24.33;14.60;;;;;;;;;;5052599;28;20214;-90
2022/03/25 14:00:33;;;;;;;21.33;13.93;;;;;;;;;;5044335;28;20280;-90
2022/03/25 14:03:02;;;;;;;20.50;13.80;;;;;;;;;;5056642;28;20263;-91
2022/03/25 14:05:32;;;;;;;21.67;14.93;;;;;;;;;;5065679;28;20274;-91
2022/03/25 14:08:00;;;;;;;24.47;16.10;;;;;;;;;;5071686;28;20267;-91
2022/03/25 14:10:28;;;;;;;21.47;14.40;;;;;;;;;;5054622;28;20283;-89
2022/03/25 14:12:59;;;;;;;21.60;14.73;;;;;;;;;;5052007;28;20694;-91
2022/03/25 14:15:27;;;;;;;21.17;13.63;;;;;;;;;;5050971;28;20708;-90
2022/03/25 14:17:55;;;;;;;25.17;15.30;;;;;;;;;;5033665;28;20211;-89
2022/03/25 14:20:25;;;;;;;24.60;15.63;;;;;;;;;;5043763;28;20728;-90
2022/03/25 14:22:53;;;;;;;24.43;15.30;;;;;;;;;;5062795;28;20395;-91
2022/03/25 14:25:21;;;;;;;24.43;16.07;;;;;;;;;;5039283;28;20227;-90
2022/03/25 14:27:51;;;;;;;21.97;15.30;;;;;;;;;;5037053;28;20212;-89
2022/03/25 14:30:19;;;;;;;24.00;13.73;;;;;;;;;;5045610;28;20236;-89
2022/03/25 14:32:46;;;;;;;21.47;15.40;;;;;;;;;;5056859;28;20628;-90